createdAt,value
2017-02-24T00:01:15.855Z,19.86
2017-02-24T00:06:33.380Z,19.77
2017-02-24T00:11:49.214Z,19.88
2017-02-24T00:17:04.796Z,19.86
2017-02-24T00:22:20.642Z,19.91
2017-02-24T00:27:37.893Z,19.79
2017-02-24T00:32:53.819Z,19.77
2017-02-24T00:38:09.900Z,19.79
2017-02-24T00:43:26.974Z,19.73
2017-02-24T00:48:42.616Z,19.79
2017-02-24T00:54:00.032Z,19.86
2017-02-24T00:59:15.802Z,19.84
2017-02-24T01:04:31.403Z,19.76
2017-02-24T01:09:47.013Z,19.77
2017-02-24T01:15:02.767Z,19.73
2017-02-24T01:20:18.343Z,19.7
2017-02-24T01:25:34.115Z,19.81
2017-02-24T01:30:50.274Z,19.74
2017-02-24T01:36:06.050Z,19.74
2017-02-24T01:41:21.624Z,19.81
2017-02-24T01:46:37.410Z,19.79
2017-02-24T01:51:53.000Z,19.66
2017-02-24T01:57:09.683Z,19.7
2017-02-24T02:02:25.288Z,19.63
2017-02-24T02:07:40.863Z,19.7
2017-02-24T02:12:56.455Z,19.66
2017-02-24T02:18:12.045Z,19.67
2017-02-24T02:23:27.661Z,19.7
2017-02-24T02:28:43.412Z,19.71
2017-02-24T02:33:59.292Z,19.62
2017-02-24T02:39:15.464Z,19.58
2017-02-24T02:44:31.336Z,19.62
2017-02-24T02:49:46.929Z,19.55
2017-02-24T02:55:02.543Z,19.56
2017-02-24T03:00:18.134Z,19.54
2017-02-24T03:05:33.933Z,19.54
2017-02-24T03:10:49.826Z,19.59
2017-02-24T03:16:05.414Z,19.62
2017-02-24T03:21:20.962Z,19.56
2017-02-24T03:26:36.516Z,19.54
2017-02-24T03:31:52.262Z,19.58
2017-02-24T03:37:08.264Z,19.64
2017-02-24T03:42:26.415Z,19.49
2017-02-24T03:47:42.256Z,19.49
2017-02-24T03:52:58.371Z,19.47
2017-02-24T03:58:14.598Z,19.45
2017-02-24T04:03:30.206Z,19.45
2017-02-24T04:08:46.150Z,19.44
2017-02-24T04:14:02.047Z,19.44
2017-02-24T04:19:17.606Z,19.41
2017-02-24T04:24:33.184Z,19.45
2017-02-24T04:29:48.934Z,19.36
2017-02-24T04:35:04.899Z,19.44
2017-02-24T04:40:20.832Z,19.45
2017-02-24T04:45:36.404Z,19.44
2017-02-24T04:50:52.019Z,19.36
2017-02-24T04:56:08.397Z,19.37
2017-02-24T05:01:24.209Z,19.34
2017-02-24T05:06:39.924Z,19.4
2017-02-24T05:11:55.672Z,19.41
2017-02-24T05:17:12.650Z,19.39
2017-02-24T05:22:28.225Z,19.31
2017-02-24T05:27:43.899Z,19.27
2017-02-24T05:32:59.843Z,19.3
2017-02-24T05:38:15.692Z,19.24
2017-02-24T05:43:31.403Z,19.3
2017-02-24T05:48:47.013Z,19.31
2017-02-24T05:54:02.581Z,19.24
2017-02-24T05:59:18.240Z,19.26
2017-02-24T06:04:34.011Z,19.27
2017-02-24T06:09:49.657Z,19.29
2017-02-24T06:15:05.466Z,19.24
2017-02-24T06:20:21.062Z,19.24
2017-02-24T06:25:36.679Z,19.33
2017-02-24T06:30:52.239Z,19.24
2017-02-24T06:36:07.811Z,19.3
2017-02-24T06:41:23.422Z,19.26
2017-02-24T06:46:39.292Z,19.09
2017-02-24T06:51:54.915Z,19.27
2017-02-24T06:57:11.968Z,19.22
2017-02-24T07:02:28.280Z,19.22
2017-02-24T07:07:44.268Z,19.12
2017-02-24T07:12:59.969Z,19.21
2017-02-24T07:18:15.548Z,19.24
2017-02-24T07:23:31.120Z,19.21
2017-02-24T07:28:46.714Z,19.19
2017-02-24T07:34:02.303Z,19.27
2017-02-24T07:39:17.934Z,19.22
2017-02-24T07:44:34.026Z,19.18
2017-02-24T07:49:53.359Z,19.18
2017-02-24T07:55:09.939Z,19.22
2017-02-24T08:00:26.263Z,19.24
2017-02-24T08:05:41.908Z,19.18
2017-02-24T08:10:57.484Z,19.16
2017-02-24T08:16:13.223Z,19.24
2017-02-24T08:21:28.814Z,19.19
2017-02-24T08:27:18.854Z,19.24
2017-02-24T08:32:34.598Z,19.26
2017-02-24T09:30:12.851Z,20.59
2017-02-24T09:31:49.167Z,21.03
2017-02-24T09:37:55.747Z,21.33
2017-02-24T09:44:03.135Z,21.66
2017-02-24T09:49:18.715Z,21.67
2017-02-24T09:54:34.452Z,21.67
2017-02-24T09:59:52.988Z,21.73
2017-02-24T10:05:07.936Z,21.85
2017-02-24T10:11:35.540Z,21.93
2017-02-24T10:17:54.209Z,21.85
2017-02-24T10:23:57.039Z,21.92
2017-02-24T10:29:55.433Z,22.06
2017-02-24T10:35:45.887Z,21.8
2017-02-24T10:41:47.595Z,21.98
2017-02-24T10:48:25.502Z,22.04
2017-02-24T10:54:19.131Z,22.08
2017-02-24T11:00:25.980Z,22.11
2017-02-24T11:06:17.613Z,22.04
2017-02-24T11:12:13.975Z,22.1
2017-02-24T11:18:05.039Z,22.14
2017-02-24T11:24:06.789Z,22.1
2017-02-24T11:30:10.590Z,21.96
2017-02-24T11:36:11.675Z,21.95
2017-02-24T11:42:04.415Z,21.83
2017-02-24T11:47:54.761Z,21.79
2017-02-24T11:53:10.294Z,21.79
2017-02-24T11:59:00.586Z,21.96
2017-02-24T12:04:50.824Z,21.98
2017-02-24T12:10:07.623Z,21.96
2017-02-24T12:16:09.733Z,21.99
2017-02-24T12:21:25.622Z,21.98
2017-02-24T12:26:41.274Z,22.11
2017-02-24T12:32:32.253Z,22.2
2017-02-24T12:38:38.542Z,22.14
2017-02-24T12:44:29.029Z,22.02
2017-02-24T12:49:44.811Z,22.11
2017-02-24T12:55:35.004Z,22.11
2017-02-24T13:01:26.430Z,22.17
2017-02-24T13:06:41.995Z,22.1
2017-02-24T13:11:57.536Z,22.14
2017-02-24T13:17:13.123Z,22.25
2017-02-24T13:22:28.657Z,22.13
2017-02-24T13:28:40.781Z,21.99
2017-02-24T13:34:45.235Z,22.08
2017-02-24T13:40:44.977Z,22.2
2017-02-24T13:46:37.462Z,22.06
2017-02-24T13:52:28.760Z,22.13
2017-02-24T13:58:45.455Z,22.1
2017-02-24T14:07:52.422Z,22.14
2017-02-24T14:15:34.766Z,22.07
2017-02-24T14:21:41.210Z,22.11
2017-02-24T14:27:41.869Z,22.08
2017-02-24T14:34:01.295Z,22.08
2017-02-24T14:40:40.799Z,22.06
2017-02-24T14:48:07.085Z,22.25
2017-02-24T14:58:35.413Z,22
2017-02-24T15:04:50.624Z,22.08
2017-02-24T15:11:28.961Z,22.14
2017-02-24T15:18:21.527Z,22.14
2017-02-24T15:24:31.502Z,22.08
2017-02-24T15:31:01.415Z,22.13
2017-02-24T15:37:09.851Z,22.26
2017-02-24T15:43:31.476Z,22.35
2017-02-24T15:50:37.502Z,22.2
2017-02-24T15:58:20.186Z,22.33
2017-02-24T16:04:10.789Z,22.38
2017-02-24T16:11:12.083Z,22.33
2017-02-24T16:17:12.596Z,22.3
2017-02-24T16:23:12.702Z,22.2
2017-02-24T16:29:13.158Z,22.22
2017-02-24T16:35:16.596Z,22.28
2017-02-24T16:41:18.133Z,22.41
2017-02-24T16:47:39.084Z,22.25
2017-02-24T16:53:38.335Z,22.22
2017-02-24T16:59:38.540Z,22.29
2017-02-24T17:05:42.483Z,22.3
2017-02-24T17:12:35.356Z,22.39
2017-02-24T17:18:34.489Z,22.28
2017-02-24T17:23:50.088Z,22.23
2017-02-24T17:29:49.540Z,22.28
2017-02-24T17:35:47.355Z,22.25
2017-02-24T17:41:38.802Z,22.29
2017-02-24T17:47:38.466Z,22.28
2017-02-24T17:53:38.825Z,22.35
2017-02-24T17:59:41.543Z,22.23
2017-02-24T18:05:38.677Z,22.15
2017-02-24T18:11:42.005Z,22.29
2017-02-24T18:17:57.322Z,22.25
2017-02-24T18:24:13.654Z,22.28
2017-02-24T18:30:17.620Z,22.36
2017-02-24T18:35:45.073Z,22.33
2017-02-24T18:41:34.858Z,22.3
2017-02-24T18:47:26.141Z,22.23
2017-02-24T18:52:54.674Z,22.26
2017-02-24T18:58:12.235Z,22.23
2017-02-24T19:03:27.778Z,22.2
2017-02-24T19:09:18.084Z,22.11
2017-02-24T19:14:33.627Z,22.1
2017-02-24T19:19:49.267Z,22.07
2017-02-24T19:25:39.581Z,22.06
2017-02-24T19:31:40.683Z,21.93
2017-02-24T19:36:56.454Z,21.96
2017-02-24T19:42:12.288Z,21.99
2017-02-24T19:47:27.720Z,22.02
2017-02-24T19:52:44.931Z,21.98
2017-02-24T19:58:01.506Z,21.88
2017-02-24T20:03:52.095Z,21.98
2017-02-24T20:09:42.301Z,22.1
2017-02-24T20:14:57.911Z,22.06
2017-02-24T20:20:13.438Z,22.2
2017-02-24T20:25:29.004Z,22.3
2017-02-24T20:30:44.519Z,22.22
2017-02-24T20:36:00.092Z,22.25
2017-02-24T20:41:15.621Z,22.07
2017-02-24T20:46:32.110Z,21.95
2017-02-24T20:51:47.628Z,21.96
2017-02-24T20:57:37.927Z,21.93
2017-02-24T21:03:28.209Z,21.88
2017-02-24T21:08:43.744Z,21.85
2017-02-24T21:13:59.338Z,21.83
2017-02-24T21:19:14.953Z,21.82
2017-02-24T21:24:30.567Z,21.8
2017-02-24T21:29:46.170Z,21.88
2017-02-24T21:35:01.740Z,21.82
2017-02-24T21:40:17.280Z,21.82
2017-02-24T21:45:32.834Z,21.85
2017-02-24T21:50:48.394Z,21.79
2017-02-24T21:56:03.936Z,21.75
2017-02-24T22:01:19.466Z,21.72
2017-02-24T22:06:35.123Z,21.77
2017-02-24T22:11:50.667Z,21.73
2017-02-24T22:17:06.234Z,21.75
2017-02-24T22:22:21.755Z,21.66
2017-02-24T22:27:37.365Z,21.61
2017-02-24T22:32:52.895Z,21.61
2017-02-24T22:38:08.525Z,21.57
2017-02-24T22:43:24.059Z,21.62
2017-02-24T22:48:39.616Z,21.52
2017-02-24T22:53:55.221Z,21.55
2017-02-24T22:59:10.745Z,21.52
2017-02-24T23:04:26.308Z,21.45
2017-02-24T23:09:41.819Z,21.46
2017-02-24T23:14:57.403Z,21.51
2017-02-24T23:20:12.924Z,21.5
2017-02-24T23:25:28.516Z,21.48
2017-02-24T23:30:44.051Z,21.45
2017-02-24T23:36:34.374Z,21.45
2017-02-24T23:42:24.703Z,21.52
2017-02-24T23:48:15.106Z,21.42
2017-02-24T23:54:05.277Z,21.42
2017-02-24T23:59:55.655Z,21.42
